createdAt,value
2023-04-04T00:01:06.430Z,103084.22
2023-04-04T00:03:36.118Z,103098.50
2023-04-04T00:06:04.406Z,103092.38
2023-04-04T00:08:32.494Z,103086.84
2023-04-04T00:11:01.596Z,103083.66
2023-04-04T00:13:30.201Z,103086.38
2023-04-04T00:15:58.938Z,103063.81
2023-04-04T00:18:27.221Z,103093.88
2023-04-04T00:20:56.768Z,103081.59
2023-04-04T00:23:25.411Z,103088.06
2023-04-04T00:25:54.173Z,103086.00
2023-04-04T00:28:23.295Z,103080.59
2023-04-04T00:30:51.422Z,103078.22
2023-04-04T00:33:19.713Z,103077.97
2023-04-04T00:35:49.854Z,103079.47
2023-04-04T00:38:19.455Z,103070.97
2023-04-04T00:40:50.740Z,103069.00
2023-04-04T00:43:19.712Z,103068.41
2023-04-04T00:45:48.367Z,103063.84
2023-04-04T00:48:17.110Z,103050.34
2023-04-04T00:50:45.577Z,103048.25
2023-04-04T00:53:13.689Z,103054.25
2023-04-04T00:55:44.079Z,103044.53
2023-04-04T00:58:12.992Z,103047.69
2023-04-04T01:00:41.600Z,103039.13
2023-04-04T01:03:12.900Z,103036.69
2023-04-04T01:05:41.974Z,103046.38
2023-04-04T01:08:10.505Z,103023.97
2023-04-04T01:10:40.880Z,103031.41
2023-04-04T01:13:11.068Z,103031.53
2023-04-04T01:15:39.640Z,103031.53
2023-04-04T01:18:09.956Z,103018.53
2023-04-04T01:20:45.649Z,103033.09
2023-04-04T01:23:14.891Z,103033.22
2023-04-04T01:25:44.912Z,103027.16
2023-04-04T01:28:13.036Z,103012.09
2023-04-04T01:30:43.799Z,103021.72
2023-04-04T01:33:21.123Z,103031.84
2023-04-04T01:36:03.432Z,103029.91
2023-04-04T01:38:37.242Z,103032.78
2023-04-04T01:41:12.283Z,103034.28
2023-04-04T01:43:40.752Z,103026.81
2023-04-04T01:46:08.968Z,103033.84
2023-04-04T01:48:37.149Z,103022.63
2023-04-04T01:51:06.239Z,103031.44
2023-04-04T01:53:34.363Z,102997.84
2023-04-04T01:56:02.792Z,103024.56
2023-04-04T01:58:32.468Z,103012.75
2023-04-04T02:01:00.829Z,103009.19
2023-04-04T02:03:29.022Z,103007.38
2023-04-04T02:05:57.203Z,103007.38
2023-04-04T02:08:25.485Z,103018.00
2023-04-04T02:10:53.700Z,102998.56
2023-04-04T02:13:22.018Z,103007.53
2023-04-04T02:15:52.524Z,102995.41
2023-04-04T02:18:20.934Z,102989.38
2023-04-04T02:20:56.049Z,102990.59
2023-04-04T02:23:24.630Z,102990.06
2023-04-04T02:25:53.245Z,102957.00
2023-04-04T02:28:21.688Z,102981.47
2023-04-04T02:30:51.451Z,102973.56
2023-04-04T02:33:19.710Z,102977.84
2023-04-04T02:35:47.908Z,102972.91
2023-04-04T02:38:16.207Z,102976.31
2023-04-04T02:40:46.786Z,102972.75
2023-04-04T02:43:14.954Z,102969.28
2023-04-04T02:45:43.416Z,102962.69
2023-04-04T02:48:13.542Z,102962.53
2023-04-04T02:50:41.906Z,102957.31
2023-04-04T02:53:10.157Z,102944.97
2023-04-04T02:55:38.332Z,102914.78
2023-04-04T02:58:06.418Z,102942.28
2023-04-04T03:00:34.703Z,102943.47
2023-04-04T03:03:03.021Z,102922.88
2023-04-04T03:05:33.094Z,102941.06
2023-04-04T03:08:01.873Z,102935.81
2023-04-04T03:10:31.207Z,102937.88
2023-04-04T03:12:59.681Z,102935.72
2023-04-04T03:15:28.053Z,102904.63
2023-04-04T03:17:56.927Z,102932.00
2023-04-04T03:20:25.047Z,102928.56
2023-04-04T03:22:57.975Z,102915.38
2023-04-04T03:25:26.658Z,102924.19
2023-04-04T03:27:54.922Z,102896.97
2023-04-04T03:30:23.400Z,102916.63
2023-04-04T03:32:51.720Z,102923.84
2023-04-04T03:35:19.978Z,102878.69
2023-04-04T03:37:52.541Z,102909.50
2023-04-04T03:40:22.101Z,102906.44
2023-04-04T03:42:50.172Z,102910.72
2023-04-04T03:45:19.107Z,102895.97
2023-04-04T03:47:47.984Z,102911.16
2023-04-04T03:50:16.358Z,102918.38
2023-04-04T03:52:44.547Z,102905.63
2023-04-04T03:55:13.330Z,102906.16
2023-04-04T03:57:42.975Z,102899.16
2023-04-04T04:00:12.493Z,102890.19
2023-04-04T04:02:40.872Z,102906.16
2023-04-04T04:05:10.388Z,102904.53
2023-04-04T04:07:38.708Z,102900.91
2023-04-04T04:10:07.760Z,102892.00
2023-04-04T04:12:35.956Z,102899.41
2023-04-04T04:15:06.260Z,102873.34
2023-04-04T04:17:34.500Z,102895.59
2023-04-04T04:20:02.601Z,102890.78
2023-04-04T04:22:31.233Z,102897.31
2023-04-04T04:24:59.661Z,102894.84
2023-04-04T04:27:28.197Z,102890.53
2023-04-04T04:29:56.887Z,102884.38
2023-04-04T04:32:28.272Z,102890.09
2023-04-04T04:34:56.740Z,102860.91
2023-04-04T04:37:26.537Z,102889.41
2023-04-04T04:39:54.793Z,102897.69
2023-04-04T04:42:23.278Z,102885.34
2023-04-04T04:44:51.618Z,102885.50
2023-04-04T04:47:19.950Z,102884.28
2023-04-04T04:49:49.929Z,102886.56
2023-04-04T04:52:19.418Z,102885.09
2023-04-04T04:54:48.230Z,102884.69
2023-04-04T04:57:16.325Z,102890.84
2023-04-04T04:59:44.592Z,102885.94
2023-04-04T05:02:13.133Z,102894.16
2023-04-04T05:04:41.464Z,102887.13
2023-04-04T05:07:12.510Z,102882.13
2023-04-04T05:09:40.588Z,102891.06
2023-04-04T05:12:09.045Z,102880.91
2023-04-04T05:14:37.718Z,102879.97
2023-04-04T05:17:06.130Z,102888.09
2023-04-04T05:19:34.647Z,102767.06
2023-04-04T05:22:03.306Z,102883.28
2023-04-04T05:24:33.141Z,102881.59
2023-04-04T05:27:01.534Z,102883.41
2023-04-04T05:29:29.823Z,102880.41
2023-04-04T05:31:58.288Z,102889.94
2023-04-04T05:34:26.842Z,102888.25
2023-04-04T05:36:55.543Z,102884.69
2023-04-04T05:39:23.876Z,102887.78
2023-04-04T05:41:54.000Z,102878.81
2023-04-04T05:44:22.348Z,102859.53
2023-04-04T05:46:50.555Z,102868.69
2023-04-04T05:49:18.918Z,102877.56
2023-04-04T05:51:47.510Z,102858.34
2023-04-04T05:54:15.755Z,102875.03
2023-04-04T05:56:44.119Z,102879.31
2023-04-04T05:59:14.001Z,102843.09
2023-04-04T06:01:42.125Z,102880.78
2023-04-04T06:04:10.579Z,102869.84
2023-04-04T06:06:39.209Z,102862.56
2023-04-04T06:09:08.853Z,102878.75
2023-04-04T06:11:37.563Z,102873.78
2023-04-04T06:14:06.075Z,102867.09
2023-04-04T06:16:36.302Z,102869.75
2023-04-04T06:19:04.490Z,102866.97
2023-04-04T06:21:32.769Z,102868.53
2023-04-04T06:24:01.062Z,102864.09
2023-04-04T06:26:29.424Z,102834.69
2023-04-04T06:28:57.929Z,102865.41
2023-04-04T06:31:26.112Z,102858.38
2023-04-04T06:33:55.767Z,102860.41
2023-04-04T06:36:24.225Z,102865.09
2023-04-04T06:38:52.317Z,102856.47
2023-04-04T06:41:23.207Z,102855.63
2023-04-04T06:43:51.396Z,102856.81
2023-04-04T06:46:20.053Z,102835.38
2023-04-04T06:48:48.858Z,102864.19
2023-04-04T06:51:18.728Z,102705.38
2023-04-04T06:53:47.138Z,102848.25
2023-04-04T06:56:15.366Z,102852.31
2023-04-04T06:58:43.493Z,102837.63
2023-04-04T07:01:11.912Z,102825.66
2023-04-04T07:03:40.501Z,102849.19
2023-04-04T07:06:08.752Z,102831.44
2023-04-04T07:08:38.375Z,102850.97
2023-04-04T07:11:08.389Z,102832.38
2023-04-04T07:13:36.730Z,102842.66
2023-04-04T07:16:04.990Z,102807.69
2023-04-04T07:18:33.265Z,102826.69
2023-04-04T07:21:01.713Z,102834.91
2023-04-04T07:23:29.961Z,102825.22
2023-04-04T07:25:59.979Z,102822.72
2023-04-04T07:28:28.358Z,102828.25
2023-04-04T07:30:56.726Z,102795.25
2023-04-04T07:33:25.010Z,102813.22
2023-04-04T07:35:53.457Z,102808.09
2023-04-04T07:38:22.051Z,102829.19
2023-04-04T07:40:50.686Z,102829.47
2023-04-04T07:43:20.403Z,102825.13
2023-04-04T07:45:48.740Z,102825.47
2023-04-04T07:48:17.267Z,102830.16
2023-04-04T07:50:45.756Z,102828.53
2023-04-04T07:53:13.909Z,102805.56
2023-04-04T07:55:42.326Z,102822.13
2023-04-04T07:58:11.020Z,102815.84
2023-04-04T08:00:40.792Z,102816.03
2023-04-04T08:03:09.374Z,102810.38
2023-04-04T08:05:37.674Z,102815.06
2023-04-04T08:08:05.843Z,102806.91
2023-04-04T08:10:34.247Z,102805.50
2023-04-04T08:13:02.447Z,102815.03
2023-04-04T08:15:30.973Z,102800.03
2023-04-04T08:18:00.835Z,102813.88
2023-04-04T08:20:29.566Z,102807.81
2023-04-04T08:22:58.675Z,102795.03
2023-04-04T08:25:27.232Z,102807.63
2023-04-04T08:27:55.740Z,102810.56
2023-04-04T08:30:24.321Z,102806.44
2023-04-04T08:32:52.930Z,102808.47
2023-04-04T08:35:22.741Z,102812.94
2023-04-04T08:37:51.118Z,102821.91
2023-04-04T08:40:19.614Z,102813.06
2023-04-04T08:42:49.698Z,102811.81
2023-04-04T08:45:20.016Z,102815.38
2023-04-04T08:47:51.575Z,102817.25
2023-04-04T08:50:23.139Z,102790.41
2023-04-04T08:52:51.656Z,102808.63
2023-04-04T08:55:20.403Z,102795.81
2023-04-04T08:57:49.561Z,102802.06
2023-04-04T09:00:21.603Z,102792.44
2023-04-04T09:02:58.146Z,102800.16
2023-04-04T09:05:29.329Z,102779.09
2023-04-04T09:08:00.856Z,102806.78
2023-04-04T09:10:29.926Z,102807.00
2023-04-04T09:13:12.398Z,102764.06
2023-04-04T09:15:47.820Z,102804.97
2023-04-04T09:18:16.542Z,102797.25
2023-04-04T09:20:47.614Z,102799.75
2023-04-04T09:23:17.517Z,102806.88
2023-04-04T09:28:23.671Z,102790.81
2023-04-04T09:30:53.282Z,102795.13
2023-04-04T09:33:24.126Z,102793.91
2023-04-04T09:35:59.479Z,102792.50
2023-04-04T09:38:30.075Z,102770.00
2023-04-04T09:40:58.848Z,102778.00
2023-04-04T09:43:31.215Z,102781.63
2023-04-04T09:46:01.919Z,102769.06
2023-04-04T09:48:33.626Z,102775.97
2023-04-04T09:51:05.980Z,102788.13
2023-04-04T09:53:37.417Z,102775.97
2023-04-04T09:56:07.154Z,102775.19
2023-04-04T09:58:36.782Z,102783.84
2023-04-04T10:01:11.055Z,102767.16
2023-04-04T10:03:39.961Z,102781.19
2023-04-04T10:06:11.362Z,102778.47
2023-04-04T10:08:41.854Z,102794.13
2023-04-04T10:11:12.375Z,102783.34
2023-04-04T10:13:44.274Z,102785.28
2023-04-04T10:16:12.988Z,102783.31
2023-04-04T10:18:41.234Z,102785.53
2023-04-04T10:23:44.117Z,102775.06
2023-04-04T10:26:13.871Z,102769.53
2023-04-04T10:28:43.939Z,102760.16
2023-04-04T10:31:18.795Z,102755.44
2023-04-04T10:33:53.828Z,102750.31
2023-04-04T10:36:26.609Z,102753.47
2023-04-04T10:39:06.403Z,102734.81
2023-04-04T10:41:35.977Z,102741.03
2023-04-04T10:44:19.913Z,102742.13
2023-04-04T10:46:53.806Z,102745.00
2023-04-04T10:49:23.927Z,102745.41
2023-04-04T10:51:57.399Z,102735.50
2023-04-04T10:54:29.281Z,102730.03
2023-04-04T10:57:00.934Z,102708.31
2023-04-04T10:59:29.390Z,102722.41
2023-04-04T11:01:59.747Z,102729.97
2023-04-04T11:04:35.420Z,102714.31
2023-04-04T11:07:17.375Z,102714.19
2023-04-04T11:09:54.371Z,102724.13
2023-04-04T11:12:30.138Z,102710.03
2023-04-04T11:15:08.240Z,102719.63
2023-04-04T11:17:44.322Z,102692.81
2023-04-04T11:20:16.323Z,102722.53
2023-04-04T11:22:46.144Z,102701.56
2023-04-04T11:25:33.533Z,102715.47
2023-04-04T11:28:10.139Z,102719.31
2023-04-04T11:30:48.541Z,102716.13
2023-04-04T11:33:34.066Z,102713.88
2023-04-04T11:36:08.622Z,102710.41
2023-04-04T11:38:42.153Z,102711.81
2023-04-04T11:41:10.847Z,102698.59
2023-04-04T11:43:49.768Z,102698.69
2023-04-04T11:46:19.870Z,102694.94
2023-04-04T11:48:49.525Z,102701.97
2023-04-04T11:51:19.871Z,102701.50
2023-04-04T11:53:50.167Z,102699.47
2023-04-04T11:56:20.875Z,102693.88
2023-04-04T11:58:56.066Z,102686.03
2023-04-04T12:01:30.536Z,102695.09
2023-04-04T12:04:01.480Z,102679.94
2023-04-04T12:06:33.200Z,102694.56
2023-04-04T12:09:03.987Z,102687.47
2023-04-04T12:11:33.877Z,102687.53
2023-04-04T12:14:02.669Z,102677.06
2023-04-04T12:16:31.952Z,102668.91
2023-04-04T12:19:03.414Z,102663.00
2023-04-04T12:21:33.321Z,102673.84
2023-04-04T12:24:03.025Z,102665.09
2023-04-04T12:26:33.020Z,102662.91
2023-04-04T12:29:02.513Z,102659.66
2023-04-04T12:31:32.146Z,102652.31
2023-04-04T12:34:01.438Z,102643.38
2023-04-04T12:36:31.613Z,102660.66
2023-04-04T12:39:03.611Z,102652.31
2023-04-04T12:41:32.194Z,102648.72
2023-04-04T12:44:04.005Z,102641.88
2023-04-04T12:46:38.986Z,102636.59
2023-04-04T12:49:08.477Z,102631.09
2023-04-04T12:51:38.126Z,102633.84
2023-04-04T12:54:08.594Z,102541.91
2023-04-04T12:56:37.406Z,102602.47
2023-04-04T12:59:11.230Z,102632.41
2023-04-04T13:01:40.430Z,102628.41
2023-04-04T13:04:10.865Z,102632.72
2023-04-04T13:06:39.859Z,102627.34
2023-04-04T13:09:18.556Z,102629.00
2023-04-04T13:11:58.850Z,102629.50
2023-04-04T13:14:27.295Z,102628.06
2023-04-04T13:17:08.414Z,102638.50
2023-04-04T13:19:37.029Z,102615.78
2023-04-04T13:22:05.401Z,102622.22
2023-04-04T13:24:35.388Z,102616.19
2023-04-04T13:27:03.895Z,102607.41
2023-04-04T13:29:32.361Z,102603.94
2023-04-04T13:32:01.906Z,102605.88
2023-04-04T13:34:30.077Z,102602.75
2023-04-04T13:36:58.348Z,102606.81
2023-04-04T13:39:26.879Z,102613.31
2023-04-04T13:41:57.575Z,102606.97
2023-04-04T13:44:27.116Z,102599.72
2023-04-04T13:46:55.858Z,102612.41
2023-04-04T13:49:24.611Z,102580.09
2023-04-04T13:51:52.764Z,102594.44
2023-04-04T13:54:21.326Z,102608.03
2023-04-04T13:56:49.633Z,102596.91
2023-04-04T13:59:19.411Z,102574.31
2023-04-04T14:01:47.805Z,102603.16
2023-04-04T14:04:23.437Z,102590.88
2023-04-04T14:06:52.542Z,102611.47
2023-04-04T14:09:20.996Z,102618.28
2023-04-04T14:11:49.176Z,102613.63
2023-04-04T14:14:19.264Z,102601.56
2023-04-04T14:16:47.546Z,102595.97
2023-04-04T14:19:16.006Z,102601.06
2023-04-04T14:21:44.546Z,102611.09
2023-04-04T14:24:12.774Z,102609.16
2023-04-04T14:26:40.988Z,102607.84
2023-04-04T14:29:09.456Z,102605.19
2023-04-04T14:31:39.559Z,102614.94
2023-04-04T14:34:07.975Z,102606.28
2023-04-04T14:36:36.925Z,102600.06
2023-04-04T14:39:05.346Z,102605.00
2023-04-04T14:41:33.586Z,102594.25
2023-04-04T14:44:02.566Z,102601.78
2023-04-04T14:46:31.001Z,102598.66
2023-04-04T14:49:00.556Z,102610.78
2023-04-04T14:51:28.972Z,102605.75
2023-04-04T14:53:57.341Z,102601.19
2023-04-04T14:56:26.455Z,102596.31
2023-04-04T14:58:54.824Z,102596.91
2023-04-04T15:01:28.373Z,102596.63
2023-04-04T15:03:56.902Z,102606.47
2023-04-04T15:06:27.267Z,102597.63
2023-04-04T15:08:55.887Z,102591.97
2023-04-04T15:11:28.493Z,102609.44
2023-04-04T15:13:56.964Z,102620.22
2023-04-04T15:16:25.512Z,102600.78
2023-04-04T15:18:53.929Z,102606.41
2023-04-04T15:21:22.078Z,102534.53
2023-04-04T15:23:51.705Z,102595.00
2023-04-04T15:26:20.005Z,102582.44
2023-04-04T15:28:49.342Z,102597.22
2023-04-04T15:31:18.016Z,102592.75
2023-04-04T15:33:46.219Z,102587.16
2023-04-04T15:36:16.927Z,102593.19
2023-04-04T15:38:45.236Z,102540.31
2023-04-04T15:41:14.807Z,102572.22
2023-04-04T15:43:42.969Z,102578.50
2023-04-04T15:46:11.267Z,102575.19
2023-04-04T15:48:41.859Z,102577.78
2023-04-04T15:51:10.334Z,102577.91
2023-04-04T15:53:38.590Z,102560.59
2023-04-04T15:56:07.349Z,102570.97
2023-04-04T15:58:37.992Z,102567.69
2023-04-04T16:01:07.631Z,102554.56
2023-04-04T16:03:36.105Z,102561.59
2023-04-04T16:06:06.587Z,102572.66
2023-04-04T16:08:34.906Z,102574.25
2023-04-04T16:11:03.553Z,102572.97
2023-04-04T16:13:32.243Z,102553.69
2023-04-04T16:16:02.233Z,102566.88
2023-04-04T16:18:31.207Z,102575.63
2023-04-04T16:20:59.420Z,102574.56
2023-04-04T16:23:27.695Z,102578.25
2023-04-04T16:25:56.382Z,102571.03
2023-04-04T16:28:24.756Z,102572.75
2023-04-04T16:30:53.197Z,102570.69
2023-04-04T16:33:24.250Z,102578.19
2023-04-04T16:35:52.361Z,102577.34
2023-04-04T16:38:20.474Z,102577.25
2023-04-04T16:40:49.032Z,102577.19
2023-04-04T16:43:17.146Z,102581.59
2023-04-04T16:45:45.514Z,102571.19
2023-04-04T16:48:13.983Z,102580.75
2023-04-04T16:50:43.521Z,102571.72
2023-04-04T16:53:11.875Z,102559.13
2023-04-04T16:55:40.213Z,102586.06
2023-04-04T16:58:08.326Z,102560.88
2023-04-04T17:00:37.556Z,102578.91
2023-04-04T17:03:06.248Z,102577.22
2023-04-04T17:05:34.473Z,102581.88
2023-04-04T17:08:09.377Z,102581.28
2023-04-04T17:10:40.596Z,102577.34
2023-04-04T17:13:10.471Z,102560.50
2023-04-04T17:15:38.598Z,102551.03
2023-04-04T17:18:07.227Z,102577.81
2023-04-04T17:20:38.232Z,102569.69
2023-04-04T17:23:08.046Z,102567.97
2023-04-04T17:25:36.659Z,102541.56
2023-04-04T17:28:06.674Z,102585.75
2023-04-04T17:30:36.736Z,102582.81
2023-04-04T17:33:05.110Z,102584.44
2023-04-04T17:35:34.906Z,102585.41
2023-04-04T17:38:03.076Z,102571.44
2023-04-04T17:40:32.838Z,102569.16
2023-04-04T17:43:01.049Z,102578.38
2023-04-04T17:45:29.851Z,102564.72
2023-04-04T17:47:58.328Z,102575.47
2023-04-04T17:50:28.312Z,102579.88
2023-04-04T17:52:56.728Z,102576.97
2023-04-04T17:55:32.487Z,102585.63
2023-04-04T17:58:02.550Z,102585.41
2023-04-04T18:00:35.138Z,102585.13
2023-04-04T18:03:03.436Z,102591.44
2023-04-04T18:05:32.450Z,102587.22
2023-04-04T18:08:05.275Z,102591.25
2023-04-04T18:10:33.982Z,102590.97
2023-04-04T18:13:03.736Z,102580.97
2023-04-04T18:15:32.206Z,102572.56
2023-04-04T18:18:03.546Z,102591.88
2023-04-04T18:20:34.987Z,102594.22
2023-04-04T18:23:04.604Z,102573.09
2023-04-04T18:25:33.732Z,102594.38
2023-04-04T18:28:06.300Z,102585.41
2023-04-04T18:30:37.330Z,102595.28
2023-04-04T18:33:06.315Z,102594.22
2023-04-04T18:35:34.643Z,102594.88
2023-04-04T18:38:03.225Z,102587.00
2023-04-04T18:40:32.500Z,102597.84
2023-04-04T18:43:04.500Z,102591.41
2023-04-04T18:45:40.306Z,102591.66
2023-04-04T18:48:09.552Z,102592.06
2023-04-04T18:50:38.032Z,102597.00
2023-04-04T18:53:06.289Z,102597.34
2023-04-04T18:55:34.726Z,102595.72
2023-04-04T18:58:04.557Z,102595.78
2023-04-04T19:00:32.836Z,102595.91
2023-04-04T19:03:01.206Z,102592.09
2023-04-04T19:05:34.302Z,102596.28
2023-04-04T19:08:04.402Z,102597.38
2023-04-04T19:10:33.260Z,102588.88
2023-04-04T19:13:01.745Z,102603.63
2023-04-04T19:15:32.976Z,102597.22
2023-04-04T19:18:01.926Z,102597.69
2023-04-04T19:20:30.081Z,102575.59
2023-04-04T19:22:58.956Z,102587.38
2023-04-04T19:25:27.335Z,102591.44
2023-04-04T19:27:55.896Z,102602.38
2023-04-04T19:30:50.397Z,102607.00
2023-04-04T19:33:21.806Z,102606.25
2023-04-04T19:35:59.492Z,102596.22
2023-04-04T19:38:29.518Z,102611.88
2023-04-04T19:40:59.666Z,102608.72
2023-04-04T19:43:28.887Z,102607.00
2023-04-04T19:46:00.344Z,102599.69
2023-04-04T19:48:44.758Z,102567.44
2023-04-04T19:51:44.364Z,102607.81
2023-04-04T19:54:16.295Z,102604.81
2023-04-04T19:56:50.634Z,102620.97
2023-04-04T19:59:57.981Z,102616.13
2023-04-04T20:02:57.929Z,102617.53
2023-04-04T20:06:00.204Z,102602.28
2023-04-04T20:08:38.668Z,102609.53
2023-04-04T20:11:08.508Z,102611.59
2023-04-04T20:13:37.509Z,102605.50
2023-04-04T20:16:08.191Z,102619.78
2023-04-04T20:18:44.106Z,102616.59
2023-04-04T20:21:14.266Z,102624.97
2023-04-04T20:23:46.361Z,102628.22
2023-04-04T20:26:35.399Z,102619.25
2023-04-04T20:29:06.898Z,102623.59
2023-04-04T20:31:36.614Z,102598.53
2023-04-04T20:34:07.851Z,102634.88
2023-04-04T20:36:42.568Z,102635.56
2023-04-04T20:39:41.398Z,102640.63
2023-04-04T20:42:19.744Z,102629.81
2023-04-04T20:44:48.357Z,102642.31
2023-04-04T20:47:43.571Z,102639.56
2023-04-04T20:50:45.805Z,102620.03
2023-04-04T20:53:20.363Z,102641.44
2023-04-04T20:55:50.652Z,102643.06
2023-04-04T20:58:28.154Z,102633.91
2023-04-04T21:00:58.253Z,102641.50
2023-04-04T21:03:32.495Z,102642.06
2023-04-04T21:06:04.765Z,102644.06
2023-04-04T21:08:51.095Z,102644.19
2023-04-04T21:11:25.465Z,102636.69
2023-04-04T21:13:53.604Z,102643.44
2023-04-04T21:16:26.881Z,102640.94
2023-04-04T21:18:59.413Z,102625.13
2023-04-04T21:21:30.094Z,102655.75
2023-04-04T21:24:01.105Z,102639.47
2023-04-04T21:26:32.321Z,102651.72
2023-04-04T21:29:02.199Z,102646.75
2023-04-04T21:31:36.381Z,102646.00
2023-04-04T21:34:13.746Z,102654.31
2023-04-04T21:36:43.567Z,102657.78
2023-04-04T21:39:13.972Z,102653.25
2023-04-04T21:41:44.211Z,102661.91
2023-04-04T21:44:13.848Z,102647.50
2023-04-04T21:46:43.188Z,102657.44
2023-04-04T21:49:12.512Z,102650.66
2023-04-04T21:51:42.461Z,102641.06
2023-04-04T21:54:10.687Z,102634.63
2023-04-04T21:56:39.243Z,102653.97
2023-04-04T21:59:09.187Z,102645.25
2023-04-04T22:01:38.134Z,102647.09
2023-04-04T22:04:06.822Z,102643.38
2023-04-04T22:06:35.143Z,102636.34
2023-04-04T22:09:06.757Z,102641.75
2023-04-04T22:11:38.995Z,102643.59
2023-04-04T22:14:07.849Z,102595.78
2023-04-04T22:16:39.658Z,102633.44
2023-04-04T22:19:11.468Z,102633.59
2023-04-04T22:21:48.008Z,102632.06
2023-04-04T22:24:19.005Z,102628.00
2023-04-04T22:26:47.514Z,102635.06
2023-04-04T22:29:17.390Z,102633.25
2023-04-04T22:31:46.186Z,102624.22
2023-04-04T22:34:15.400Z,102628.19
2023-04-04T22:36:44.292Z,102626.69
2023-04-04T22:39:16.308Z,102625.88
2023-04-04T22:41:46.939Z,102626.06
2023-04-04T22:44:15.296Z,102627.28
2023-04-04T22:46:43.591Z,102620.09
2023-04-04T22:49:13.649Z,102622.72
2023-04-04T22:51:45.990Z,102615.44
2023-04-04T22:54:16.572Z,102613.03
2023-04-04T22:56:46.700Z,102605.59
2023-04-04T22:59:15.524Z,102608.63
2023-04-04T23:01:43.715Z,102613.41
2023-04-04T23:04:12.185Z,102606.72
2023-04-04T23:06:40.511Z,102618.25
2023-04-04T23:09:09.041Z,102610.28
2023-04-04T23:11:38.287Z,102615.78
2023-04-04T23:14:09.632Z,102609.50
2023-04-04T23:16:38.639Z,102602.53
2023-04-04T23:19:09.104Z,102615.34
2023-04-04T23:21:38.179Z,102594.09
2023-04-04T23:24:07.181Z,102613.59
2023-04-04T23:26:35.535Z,102594.88
2023-04-04T23:29:04.264Z,102610.38
2023-04-04T23:31:33.834Z,102597.75
2023-04-04T23:34:02.156Z,102597.75
2023-04-04T23:36:31.173Z,102607.00
2023-04-04T23:38:59.447Z,102597.09
2023-04-04T23:41:28.424Z,102602.31
2023-04-04T23:43:56.754Z,102599.53
2023-04-04T23:46:25.339Z,102595.88
2023-04-04T23:48:55.500Z,102578.06
2023-04-04T23:51:25.735Z,102548.63
2023-04-04T23:53:54.039Z,102588.75
2023-04-04T23:56:22.756Z,102588.66
2023-04-04T23:58:51.956Z,102583.13
